This is the latest recevied weather packets stored in our database for station/object OK1PHM-12. If no packets are shown the sender has not sent any weather packets the latest 1 day(s).
| Time | Temp. | Humidity | Pressure | Rain* | Wind** | Luminosity | Snow |
|---|---|---|---|---|---|---|---|
| 1777747075 | 17.78° C | 53% | 1020.5 hPa | - | - | - | - |
| 1777746175 | 18.89° C | 50% | 1020.4 hPa | - | - | - | - |
| 1777745274 | 20° C | 48% | 1020.3 hPa | - | - | - | - |
| 1777744373 | 21.67° C | 41% | 1020.2 hPa | - | - | - | - |
| 1777743472 | 22.78° C | 37% | 1020.3 hPa | - | - | - | - |
| 1777742571 | 22.78° C | 35% | 1020.2 hPa | - | - | - | - |
| 1777741670 | 23.33° C | 35% | 1020.4 hPa | - | - | - | - |
| 1777740769 | 23.33° C | 34% | 1020.5 hPa | - | - | - | - |
| 1777739868 | 23.89° C | 35% | 1020.7 hPa | - | - | - | - |
| 1777738967 | 23.89° C | 34% | 1020.7 hPa | - | - | - | - |
| 1777738066 | 23.89° C | 33% | 1020.9 hPa | - | - | - | - |
| 1777737166 | 24.44° C | 34% | 1021.1 hPa | - | - | - | - |
| 1777736265 | 24.44° C | 33% | 1021.3 hPa | - | - | - | - |
| 1777733562 | 24.44° C | 32% | 1022 hPa | - | - | - | - |
| 1777732662 | 24.44° C | 32% | 1022.1 hPa | - | - | - | - |
| 1777731761 | 23.89° C | 32% | 1022.1 hPa | - | - | - | - |
| 1777730860 | 24.44° C | 33% | 1022.3 hPa | - | - | - | - |
| 1777729959 | 23.89° C | 32% | 1022.4 hPa | - | - | - | - |
| 1777729058 | 24.44° C | 32% | 1022.6 hPa | - | - | - | - |
| 1777728157 | 25.56° C | 31% | 1022.8 hPa | - | - | - | - |
| 1777727256 | 26.11° C | 30% | 1023.1 hPa | - | - | - | - |
| 1777726355 | 24.44° C | 32% | 1023.3 hPa | - | - | - | - |
| 1777725454 | 24.44° C | 32% | 1023.4 hPa | - | - | - | - |
| 1777724553 | 24.44° C | 32% | 1023.6 hPa | - | - | - | - |
| 1777723652 | 25° C | 31% | 1023.9 hPa | - | - | - | - |
* Rain since midnight (hover to see other rain measurements)
** Current wind speed in m/s (hover to see current wind gust speed)